KRIV/RIV METAR and TAF weather

Enter ICAO airport designator
Station Type Date Time Source
KRIV METAR 2020/01/23 17:58 UTC NOAA

KRIV 231758Z AUTO 00000KT 10SM CLR 14/13 A3017 RMK AO2 SLP217 T01400125 10140 20015


Station Type Date Time Source
KRIV Decoded METAR 2020/01/23 17:58 UTC NOAA

Riverside / March Air Force Base, CA, United States (KRIV) 33-54N 117-15W 468M
Jan 23, 2020 - 12:58 PM EST / 2020.01.23 1758 UTC
Wind: Calm:0
Visibility: 10 mile(s):0
Sky conditions: clear
Temperature: 57.2 F (14.0 C)
Dew Point: 54.5 F (12.5 C)
Relative Humidity: 90%
Pressure (altimeter): 30.17 in. Hg (1021 hPa)
ob: KRIV 231758Z AUTO 00000KT 10SM CLR 14/13 A3017 RMK AO2 SLP217 T01400125 10140 20015
cycle: 18

Station Type Date Time Source
KRIV TAF 2020/01/23 12:09 UTC NOAA

TAF KRIV 231200Z 2312/2418 VRB04KT 9000 BR FEW250 QNH3014INS
BECMG 2314/2315 04006KT 9999 NSW FEW250 QNH3015INS
BECMG 2320/2321 32009KT 9999 SCT250 QNH3004INS
BECMG 2402/2403 VRB03KT 9999 BKN250 QNH3003INS TX22/2322Z TN01/2314Z

Example: see airport list